createdAt,value
2022-11-06T00:02:20.545Z,4.70
2022-11-06T00:04:47.930Z,4.90
2022-11-06T00:07:14.667Z,4.25
2022-11-06T00:09:41.074Z,4.70
2022-11-06T00:12:07.502Z,4.53
2022-11-06T00:14:35.074Z,4.90
2022-11-06T00:17:01.481Z,4.72
2022-11-06T00:19:27.937Z,4.95
2022-11-06T00:21:54.335Z,4.72
2022-11-06T00:24:20.748Z,4.70
2022-11-06T00:26:51.422Z,5.13
2022-11-06T00:29:20.574Z,4.47
2022-11-06T00:31:49.856Z,5.78
2022-11-06T00:34:16.331Z,5.57
2022-11-06T00:36:42.738Z,4.63
2022-11-06T00:39:11.070Z,5.93
2022-11-06T00:41:37.556Z,4.70
2022-11-06T00:44:04.545Z,4.90
2022-11-06T00:46:30.983Z,5.05
2022-11-06T00:48:57.866Z,5.18
2022-11-06T00:51:29.701Z,5.32
2022-11-06T00:56:25.268Z,4.78
2022-11-06T00:58:51.936Z,5.22
2022-11-06T01:01:24.428Z,5.03
2022-11-06T01:03:56.598Z,4.50
2022-11-06T01:06:25.447Z,4.70
2022-11-06T01:08:52.797Z,4.53
2022-11-06T01:11:25.072Z,4.75
2022-11-06T01:13:54.975Z,4.45
2022-11-06T01:16:22.652Z,4.80
2022-11-06T01:18:50.125Z,5.15
2022-11-06T01:21:20.942Z,5.07
2022-11-06T01:23:51.816Z,4.50
2022-11-06T01:26:33.912Z,4.83
2022-11-06T01:29:06.177Z,5.00
2022-11-06T01:31:34.076Z,5.03
2022-11-06T01:34:01.967Z,4.35
2022-11-06T01:36:29.218Z,4.57
2022-11-06T01:38:58.238Z,4.50
2022-11-06T01:41:28.002Z,4.47
2022-11-06T01:43:58.057Z,4.20
2022-11-06T01:46:27.253Z,4.60
2022-11-06T01:49:08.296Z,4.38
2022-11-06T01:51:40.301Z,4.43
2022-11-06T01:54:08.474Z,4.25
2022-11-06T01:56:37.645Z,4.07
2022-11-06T01:59:06.472Z,4.03
2022-11-06T02:01:33.325Z,3.65
2022-11-06T02:04:07.636Z,4.13
2022-11-06T02:06:34.764Z,3.72
2022-11-06T02:09:01.769Z,4.10
2022-11-06T02:11:28.431Z,4.00
2022-11-06T02:14:09.852Z,4.28
2022-11-06T02:16:57.100Z,4.30
2022-11-06T02:19:38.809Z,3.92
2022-11-06T02:22:25.901Z,4.07
2022-11-06T02:25:16.287Z,3.83
2022-11-06T02:27:51.306Z,3.72
2022-11-06T02:30:18.738Z,3.92
2022-11-06T02:33:04.473Z,3.33
2022-11-06T02:35:38.558Z,3.90
2022-11-06T02:38:08.394Z,3.95
2022-11-06T02:40:40.820Z,3.40
2022-11-06T02:43:08.428Z,3.40
2022-11-06T02:45:51.132Z,3.90
2022-11-06T02:48:21.409Z,3.63
2022-11-06T02:50:51.930Z,3.17
2022-11-06T02:53:22.957Z,3.35
2022-11-06T02:56:07.471Z,3.50
2022-11-06T02:58:53.985Z,3.38
2022-11-06T03:01:27.886Z,3.25
2022-11-06T03:04:00.304Z,3.33
2022-11-06T03:06:39.167Z,3.42
2022-11-06T03:09:12.444Z,3.42
2022-11-06T03:11:39.207Z,3.20
2022-11-06T03:14:16.974Z,3.30
2022-11-06T03:17:00.060Z,3.97
2022-11-06T03:19:37.544Z,3.17
2022-11-06T03:22:12.403Z,3.13
2022-11-06T03:25:16.305Z,3.33
2022-11-06T03:28:05.304Z,3.33
2022-11-06T03:30:39.122Z,2.88
2022-11-06T03:33:20.289Z,3.70
2022-11-06T03:36:19.338Z,3.20
2022-11-06T03:38:51.096Z,3.47
2022-11-06T03:43:57.381Z,3.13
2022-11-06T03:46:26.144Z,2.92
2022-11-06T03:49:00.619Z,2.72
2022-11-06T03:51:31.882Z,3.10
2022-11-06T03:54:14.902Z,2.75
2022-11-06T03:56:50.867Z,2.63
2022-11-06T03:59:23.267Z,2.72
2022-11-06T04:01:53.822Z,3.15
2022-11-06T04:04:38.336Z,2.80
2022-11-06T04:07:13.140Z,3.33
2022-11-06T04:10:01.595Z,2.78
2022-11-06T04:12:49.843Z,3.00
2022-11-06T04:15:19.538Z,3.03
2022-11-06T04:17:45.949Z,2.78
2022-11-06T04:20:39.159Z,2.92
2022-11-06T04:23:38.127Z,2.70
2022-11-06T04:26:35.924Z,3.22
2022-11-06T04:29:31.066Z,2.60
2022-11-06T04:32:32.649Z,3.25
2022-11-06T04:35:15.524Z,2.83
2022-11-06T04:37:44.911Z,2.75
2022-11-06T04:40:17.476Z,2.90
2022-11-06T04:43:03.481Z,2.72
2022-11-06T04:45:36.050Z,2.75
2022-11-06T04:48:04.794Z,2.60
2022-11-06T04:50:39.250Z,2.53
2022-11-06T04:53:09.242Z,2.50
2022-11-06T04:55:50.017Z,2.88
2022-11-06T04:58:16.620Z,2.17
2022-11-06T05:00:47.020Z,2.75
2022-11-06T05:03:14.489Z,2.50
2022-11-06T05:05:41.421Z,2.92
2022-11-06T05:08:14.406Z,2.60
2022-11-06T05:10:42.993Z,2.25
2022-11-06T05:13:13.991Z,2.45
2022-11-06T05:15:40.848Z,2.50
2022-11-06T05:18:07.554Z,2.80
2022-11-06T05:20:34.060Z,2.13
2022-11-06T05:23:00.650Z,2.65
2022-11-06T05:25:30.615Z,3.00
2022-11-06T05:27:57.574Z,2.22
2022-11-06T05:30:25.281Z,2.78
2022-11-06T05:32:52.443Z,2.47
2022-11-06T05:35:20.658Z,2.58
2022-11-06T05:37:47.422Z,2.30
2022-11-06T05:40:14.506Z,2.13
2022-11-06T05:42:43.247Z,2.40
2022-11-06T05:45:10.966Z,2.92
2022-11-06T05:47:41.567Z,2.60
2022-11-06T05:50:09.755Z,2.42
2022-11-06T05:52:36.925Z,2.40
2022-11-06T05:55:04.924Z,2.72
2022-11-06T05:57:32.428Z,2.50
2022-11-06T05:59:58.808Z,2.42
2022-11-06T06:02:25.311Z,2.65
2022-11-06T06:04:51.941Z,2.85
2022-11-06T06:07:18.339Z,2.47
2022-11-06T06:09:44.848Z,2.88
2022-11-06T06:12:13.356Z,2.70
2022-11-06T06:14:39.736Z,2.50
2022-11-06T06:17:06.158Z,2.85
2022-11-06T06:19:32.868Z,2.53
2022-11-06T06:21:59.310Z,2.47
2022-11-06T06:24:25.920Z,2.55
2022-11-06T06:26:52.353Z,2.55
2022-11-06T06:29:18.735Z,2.85
2022-11-06T06:31:45.162Z,2.38
2022-11-06T06:34:11.575Z,2.55
2022-11-06T06:36:38.018Z,2.88
2022-11-06T06:39:04.390Z,2.47
2022-11-06T06:41:30.819Z,2.38
2022-11-06T06:43:57.195Z,3.13
2022-11-06T06:46:23.610Z,2.88
2022-11-06T06:48:50.088Z,3.15
2022-11-06T06:51:22.643Z,2.85
2022-11-06T06:53:50.486Z,2.85
2022-11-06T06:56:16.934Z,3.60
2022-11-06T06:58:43.322Z,3.10
2022-11-06T07:01:10.901Z,2.83
2022-11-06T07:03:38.366Z,2.70
2022-11-06T07:06:05.448Z,2.50
2022-11-06T07:08:33.358Z,2.92
2022-11-06T07:11:04.607Z,3.05
2022-11-06T07:13:35.904Z,3.15
2022-11-06T07:16:07.407Z,2.90
2022-11-06T07:18:34.910Z,3.60
2022-11-06T07:21:04.459Z,3.78
2022-11-06T07:23:30.847Z,3.28
2022-11-06T07:25:57.247Z,3.10
2022-11-06T07:28:23.692Z,2.83
2022-11-06T07:30:50.123Z,2.63
2022-11-06T07:33:16.550Z,3.22
2022-11-06T07:35:43.049Z,2.58
2022-11-06T07:38:09.436Z,2.80
2022-11-06T07:40:36.622Z,2.90
2022-11-06T07:43:05.111Z,2.85
2022-11-06T07:45:31.554Z,3.28
2022-11-06T07:47:59.190Z,2.80
2022-11-06T07:50:26.148Z,2.45
2022-11-06T07:52:52.612Z,2.78
2022-11-06T07:55:19.295Z,2.40
2022-11-06T07:57:46.231Z,2.60
2022-11-06T08:00:13.624Z,2.92
2022-11-06T08:02:40.517Z,2.85
2022-11-06T08:05:07.463Z,2.53
2022-11-06T08:07:33.854Z,2.55
2022-11-06T08:10:00.240Z,2.67
2022-11-06T08:12:26.680Z,2.90
2022-11-06T08:14:53.135Z,3.50
2022-11-06T08:17:19.741Z,2.80
2022-11-06T08:19:46.148Z,3.25
2022-11-06T08:22:12.566Z,3.58
2022-11-06T08:24:39.015Z,2.90
2022-11-06T08:27:05.424Z,2.55
2022-11-06T08:29:32.628Z,2.85
2022-11-06T08:32:01.195Z,2.50
2022-11-06T08:34:27.594Z,2.33
2022-11-06T08:36:54.029Z,2.40
2022-11-06T08:39:20.507Z,2.42
2022-11-06T08:41:46.914Z,2.45
2022-11-06T08:44:13.342Z,2.42
2022-11-06T08:46:39.735Z,2.40
2022-11-06T08:49:06.239Z,2.35
2022-11-06T08:51:32.630Z,1.95
2022-11-06T08:53:59.091Z,2.30
2022-11-06T08:56:25.529Z,2.35
2022-11-06T08:58:55.539Z,2.58
2022-11-06T09:01:24.002Z,2.67
2022-11-06T09:03:50.734Z,2.28
2022-11-06T09:06:17.506Z,2.55
2022-11-06T09:08:43.935Z,2.30
2022-11-06T09:11:11.848Z,2.20
2022-11-06T09:13:38.427Z,2.35
2022-11-06T09:16:08.094Z,2.30
2022-11-06T09:18:37.878Z,2.20
2022-11-06T09:21:04.417Z,2.55
2022-11-06T09:23:30.858Z,2.22
2022-11-06T09:25:57.876Z,1.90
2022-11-06T09:28:24.416Z,1.75
2022-11-06T09:30:50.842Z,1.90
2022-11-06T09:33:17.705Z,2.42
2022-11-06T09:35:44.262Z,2.20
2022-11-06T09:38:12.353Z,2.35
2022-11-06T09:40:50.096Z,1.70
2022-11-06T09:44:02.810Z,1.90
2022-11-06T09:46:26.411Z,2.00
2022-11-06T09:48:58.294Z,2.10
2022-11-06T09:51:39.278Z,1.63
2022-11-06T09:54:15.782Z,2.10
2022-11-06T09:56:45.880Z,2.15
2022-11-06T09:59:18.154Z,2.03
2022-11-06T10:01:52.845Z,1.55
2022-11-06T10:04:47.680Z,1.70
2022-11-06T10:07:33.405Z,2.00
2022-11-06T10:10:01.330Z,1.80
2022-11-06T10:13:17.554Z,2.03
2022-11-06T10:15:48.525Z,1.55
2022-11-06T10:18:47.257Z,1.90
2022-11-06T10:21:22.755Z,1.70
2022-11-06T10:24:03.385Z,1.67
2022-11-06T10:26:39.837Z,1.67
2022-11-06T10:29:54.000Z,1.55
2022-11-06T10:33:06.611Z,1.48
2022-11-06T10:35:38.574Z,1.33
2022-11-06T10:38:12.440Z,1.73
2022-11-06T10:40:39.450Z,1.60
2022-11-06T10:43:34.439Z,1.42
2022-11-06T10:46:04.999Z,1.90
2022-11-06T10:48:43.501Z,1.50
2022-11-06T10:51:21.811Z,2.00
2022-11-06T10:54:19.193Z,1.70
2022-11-06T10:56:54.383Z,1.92
2022-11-06T10:59:20.996Z,2.05
2022-11-06T11:01:47.560Z,1.90
2022-11-06T11:04:14.069Z,1.65
2022-11-06T11:06:41.230Z,1.60
2022-11-06T11:09:27.559Z,1.88
2022-11-06T11:11:54.027Z,1.88
2022-11-06T11:14:31.177Z,1.70
2022-11-06T11:17:01.826Z,1.80
2022-11-06T11:19:44.063Z,1.90
2022-11-06T11:22:16.495Z,1.65
2022-11-06T11:25:16.076Z,2.10
2022-11-06T11:27:45.307Z,1.77
2022-11-06T11:30:22.633Z,1.98
2022-11-06T11:32:49.958Z,1.70
2022-11-06T11:35:21.735Z,1.77
2022-11-06T11:40:36.938Z,1.80
2022-11-06T11:43:27.097Z,1.70
2022-11-06T11:46:04.494Z,2.05
2022-11-06T11:48:44.225Z,1.90
2022-11-06T11:51:30.930Z,1.67
2022-11-06T11:54:05.032Z,2.33
2022-11-06T11:57:02.389Z,1.58
2022-11-06T11:59:21.953Z,1.35
2022-11-06T12:01:49.206Z,1.40
2022-11-06T12:04:32.174Z,1.88
2022-11-06T12:07:01.935Z,1.30
2022-11-06T12:09:31.599Z,1.63
2022-11-06T12:12:00.422Z,1.70
2022-11-06T12:14:37.514Z,1.70
2022-11-06T12:17:13.503Z,1.60
2022-11-06T12:19:44.890Z,1.73
2022-11-06T12:22:18.760Z,1.50
2022-11-06T12:25:01.854Z,1.60
2022-11-06T12:27:36.803Z,1.73
2022-11-06T12:30:21.480Z,1.55
2022-11-06T12:32:59.735Z,1.70
2022-11-06T12:35:37.663Z,1.50
2022-11-06T12:38:20.757Z,1.75
2022-11-06T12:41:06.946Z,1.83
2022-11-06T12:43:36.716Z,1.67
2022-11-06T12:46:21.987Z,1.27
2022-11-06T12:49:25.467Z,1.65
2022-11-06T12:52:16.898Z,1.27
2022-11-06T12:55:14.448Z,1.63
2022-11-06T12:58:31.706Z,1.60
2022-11-06T13:01:20.261Z,1.77
2022-11-06T13:04:09.608Z,1.77
2022-11-06T13:06:57.876Z,1.40
2022-11-06T13:09:37.367Z,1.77
2022-11-06T13:12:18.889Z,1.77
2022-11-06T13:15:06.564Z,1.60
2022-11-06T13:17:57.431Z,1.45
2022-11-06T13:20:27.498Z,1.40
2022-11-06T13:23:10.626Z,1.63
2022-11-06T13:25:52.620Z,1.50
2022-11-06T13:30:49.719Z,1.63
2022-11-06T13:33:37.089Z,1.33
2022-11-06T13:36:04.442Z,1.50
2022-11-06T13:38:37.910Z,1.58
2022-11-06T13:41:21.434Z,2.00
2022-11-06T13:44:03.470Z,1.52
2022-11-06T13:46:39.566Z,1.67
2022-11-06T13:49:22.367Z,1.92
2022-11-06T13:51:58.392Z,2.47
2022-11-06T13:55:00.472Z,1.90
2022-11-06T13:57:52.419Z,2.45
2022-11-06T14:00:21.327Z,2.28
2022-11-06T14:02:59.886Z,2.00
2022-11-06T14:05:53.167Z,2.33
2022-11-06T14:08:25.712Z,2.72
2022-11-06T14:10:57.199Z,3.65
2022-11-06T14:13:26.598Z,2.80
2022-11-06T14:16:23.558Z,2.60
2022-11-06T14:19:00.467Z,2.70
2022-11-06T14:21:49.282Z,2.55
2022-11-06T14:24:31.523Z,2.50
2022-11-06T14:27:01.904Z,1.92
2022-11-06T14:29:28.538Z,2.17
2022-11-06T14:32:02.692Z,2.05
2022-11-06T14:34:34.204Z,2.00
2022-11-06T14:37:30.801Z,3.03
2022-11-06T14:39:57.601Z,1.98
2022-11-06T14:42:27.068Z,1.75
2022-11-06T14:44:56.979Z,1.77
2022-11-06T14:47:32.143Z,1.67
2022-11-06T14:50:04.322Z,1.92
2022-11-06T14:52:42.006Z,1.45
2022-11-06T14:55:21.925Z,2.20
2022-11-06T14:57:52.284Z,2.20
2022-11-06T15:00:36.311Z,1.88
2022-11-06T15:03:05.835Z,1.70
2022-11-06T15:05:42.078Z,1.88
2022-11-06T15:08:08.945Z,2.10
2022-11-06T15:10:44.670Z,2.08
2022-11-06T15:13:17.243Z,1.70
2022-11-06T15:15:50.860Z,2.03
2022-11-06T15:18:22.588Z,2.30
2022-11-06T15:20:52.864Z,2.15
2022-11-06T15:23:23.542Z,2.22
2022-11-06T15:26:01.169Z,2.50
2022-11-06T15:28:33.762Z,3.20
2022-11-06T15:31:04.680Z,1.80
2022-11-06T15:33:35.829Z,2.00
2022-11-06T15:36:07.650Z,2.10
2022-11-06T15:41:07.502Z,2.15
2022-11-06T15:43:35.731Z,2.20
2022-11-06T15:46:11.122Z,1.90
2022-11-06T15:48:38.200Z,1.83
2022-11-06T15:51:28.664Z,1.90
2022-11-06T15:53:55.790Z,1.90
2022-11-06T15:56:31.589Z,2.08
2022-11-06T15:59:10.149Z,2.22
2022-11-06T16:01:36.878Z,1.90
2022-11-06T16:04:15.862Z,2.22
2022-11-06T16:06:43.302Z,2.00
2022-11-06T16:09:19.995Z,1.58
2022-11-06T16:11:49.064Z,1.98
2022-11-06T16:14:15.743Z,2.30
2022-11-06T16:16:45.613Z,2.28
2022-11-06T16:19:28.888Z,1.90
2022-11-06T16:22:10.773Z,2.20
2022-11-06T16:24:48.512Z,1.83
2022-11-06T16:27:15.771Z,1.92
2022-11-06T16:29:53.194Z,1.45
2022-11-06T16:32:23.629Z,1.65
2022-11-06T16:34:51.647Z,1.65
2022-11-06T16:37:18.004Z,2.83
2022-11-06T16:39:50.825Z,1.88
2022-11-06T16:42:28.275Z,1.98
2022-11-06T16:45:19.923Z,1.95
2022-11-06T16:48:34.119Z,2.28
2022-11-06T16:51:03.931Z,1.75
2022-11-06T16:53:33.437Z,1.85
2022-11-06T16:56:03.686Z,2.35
2022-11-06T16:58:41.875Z,2.65
2022-11-06T17:01:08.442Z,2.05
2022-11-06T17:03:56.112Z,2.40
2022-11-06T17:06:28.868Z,3.47
2022-11-06T17:09:09.184Z,3.17
2022-11-06T17:11:36.545Z,2.78
2022-11-06T17:14:16.186Z,2.78
2022-11-06T17:17:02.070Z,1.88
2022-11-06T17:19:29.522Z,1.85
2022-11-06T17:21:57.567Z,2.58
2022-11-06T17:24:39.309Z,2.10
2022-11-06T17:27:06.501Z,2.60
2022-11-06T17:29:35.923Z,1.63
2022-11-06T17:32:02.688Z,1.77
2022-11-06T17:34:29.090Z,2.20
2022-11-06T17:36:55.761Z,2.78
2022-11-06T17:39:22.495Z,2.40
2022-11-06T17:41:48.864Z,2.40
2022-11-06T17:44:15.498Z,2.75
2022-11-06T17:46:44.536Z,3.13
2022-11-06T17:49:17.193Z,3.47
2022-11-06T17:51:50.477Z,3.90
2022-11-06T17:54:18.803Z,3.13
2022-11-06T17:56:45.580Z,3.33
2022-11-06T17:59:13.302Z,3.25
2022-11-06T18:01:40.701Z,2.80
2022-11-06T18:04:07.485Z,3.25
2022-11-06T18:06:34.128Z,3.45
2022-11-06T18:09:04.189Z,2.60
2022-11-06T18:11:30.795Z,2.10
2022-11-06T18:13:57.590Z,3.13
2022-11-06T18:16:27.866Z,2.42
2022-11-06T18:18:54.662Z,2.72
2022-11-06T18:21:21.360Z,3.25
2022-11-06T18:23:47.884Z,3.40
2022-11-06T18:26:17.697Z,3.38
2022-11-06T18:28:44.182Z,3.20
2022-11-06T18:31:10.594Z,2.90
2022-11-06T18:33:37.000Z,3.72
2022-11-06T18:36:05.914Z,3.28
2022-11-06T18:38:32.535Z,3.13
2022-11-06T18:40:59.315Z,3.10
2022-11-06T18:43:25.705Z,2.88
2022-11-06T18:45:52.165Z,3.05
2022-11-06T18:48:21.472Z,3.33
2022-11-06T18:50:48.477Z,3.92
2022-11-06T18:53:15.335Z,3.38
2022-11-06T18:55:45.771Z,3.60
2022-11-06T18:58:12.723Z,3.47
2022-11-06T19:00:39.369Z,3.55
2022-11-06T19:03:06.102Z,5.07
2022-11-06T19:05:34.183Z,3.60
2022-11-06T19:08:02.177Z,4.13
2022-11-06T19:10:29.410Z,3.67
2022-11-06T19:12:59.178Z,3.95
2022-11-06T19:15:26.112Z,3.63
2022-11-06T19:17:54.437Z,4.40
2022-11-06T19:20:21.714Z,4.05
2022-11-06T19:22:52.481Z,4.07
2022-11-06T19:25:19.731Z,4.53
2022-11-06T19:27:47.094Z,4.05
2022-11-06T19:30:14.558Z,4.43
2022-11-06T19:32:42.099Z,5.07
2022-11-06T19:35:09.018Z,4.65
2022-11-06T19:37:36.117Z,5.13
2022-11-06T19:40:06.109Z,4.07
2022-11-06T19:42:33.229Z,4.63
2022-11-06T19:45:00.125Z,4.40
2022-11-06T19:47:28.041Z,4.75
2022-11-06T19:49:54.536Z,4.90
2022-11-06T19:52:41.995Z,4.88
2022-11-06T19:55:24.644Z,4.82
2022-11-06T19:57:53.802Z,5.13
2022-11-06T20:00:20.311Z,5.47
2022-11-06T20:02:49.629Z,6.07
2022-11-06T20:05:16.165Z,5.10
2022-11-06T20:07:42.692Z,5.32
2022-11-06T20:10:09.911Z,6.25
2022-11-06T20:12:36.386Z,5.07
2022-11-06T20:15:03.179Z,5.60
2022-11-06T20:17:29.585Z,5.95
2022-11-06T20:19:55.961Z,5.65
2022-11-06T20:22:22.431Z,4.85
2022-11-06T20:24:48.930Z,5.47
2022-11-06T20:27:15.390Z,5.43
2022-11-06T20:29:41.911Z,5.45
2022-11-06T20:32:08.341Z,5.28
2022-11-06T20:34:34.892Z,5.45
2022-11-06T20:37:01.567Z,6.07
2022-11-06T20:39:28.221Z,6.47
2022-11-06T20:41:55.293Z,5.80
2022-11-06T20:44:21.723Z,5.95
2022-11-06T20:46:48.374Z,5.53
2022-11-06T20:49:15.143Z,6.38
2022-11-06T20:52:07.368Z,5.20
2022-11-06T20:54:28.230Z,5.57
2022-11-06T20:56:54.607Z,5.60
2022-11-06T20:59:21.305Z,5.25
2022-11-06T21:01:48.069Z,5.55
2022-11-06T21:04:14.850Z,5.75
2022-11-06T21:06:41.391Z,6.22
2022-11-06T21:09:08.058Z,6.15
2022-11-06T21:11:35.181Z,5.53
2022-11-06T21:14:02.134Z,5.97
2022-11-06T21:16:34.616Z,5.55
2022-11-06T21:19:02.462Z,5.75
2022-11-06T21:21:33.284Z,6.13
2022-11-06T21:24:01.219Z,6.05
2022-11-06T21:26:30.982Z,6.10
2022-11-06T21:28:57.850Z,5.68
2022-11-06T21:31:26.382Z,5.85
2022-11-06T21:33:55.472Z,5.20
2022-11-06T21:36:25.550Z,5.35
2022-11-06T21:38:53.392Z,5.38
2022-11-06T21:41:22.343Z,5.68
2022-11-06T21:43:49.077Z,5.40
2022-11-06T21:46:16.787Z,5.63
2022-11-06T21:48:46.736Z,5.75
2022-11-06T21:51:26.768Z,5.25
2022-11-06T21:54:12.482Z,5.32
2022-11-06T21:56:40.537Z,4.93
2022-11-06T21:59:12.273Z,5.38
2022-11-06T22:01:40.191Z,4.90
2022-11-06T22:04:07.322Z,5.28
2022-11-06T22:06:33.879Z,5.13
2022-11-06T22:09:02.461Z,4.97
2022-11-06T22:11:38.287Z,5.05
2022-11-06T22:14:14.014Z,5.43
2022-11-06T22:16:42.112Z,4.80
2022-11-06T22:19:09.691Z,4.50
2022-11-06T22:21:38.187Z,5.03
2022-11-06T22:24:05.420Z,4.80
2022-11-06T22:26:33.553Z,4.68
2022-11-06T22:29:06.058Z,4.82
2022-11-06T22:31:32.731Z,4.55
2022-11-06T22:33:59.436Z,4.90
2022-11-06T22:36:26.016Z,4.50
2022-11-06T22:38:52.963Z,5.38
2022-11-06T22:41:22.387Z,4.05
2022-11-06T22:43:49.533Z,4.40
2022-11-06T22:46:22.007Z,4.60
2022-11-06T22:48:49.483Z,5.13
2022-11-06T22:51:22.383Z,4.22
2022-11-06T22:53:50.288Z,4.30
2022-11-06T22:56:17.366Z,4.70
2022-11-06T22:58:44.161Z,4.55
2022-11-06T23:01:11.493Z,4.60
2022-11-06T23:03:38.574Z,4.65
2022-11-06T23:06:07.846Z,4.50
2022-11-06T23:08:36.018Z,4.80
2022-11-06T23:11:11.909Z,4.85
2022-11-06T23:13:39.572Z,4.72
2022-11-06T23:16:08.949Z,4.90
2022-11-06T23:18:35.717Z,4.00
2022-11-06T23:21:10.556Z,4.88
2022-11-06T23:23:36.941Z,4.53
2022-11-06T23:26:15.202Z,4.22
2022-11-06T23:28:42.643Z,4.57
2022-11-06T23:31:10.761Z,4.47
2022-11-06T23:33:37.660Z,4.63
2022-11-06T23:36:08.753Z,4.22
2022-11-06T23:38:35.764Z,4.10
2022-11-06T23:41:29.932Z,4.32
2022-11-06T23:43:57.591Z,4.25
2022-11-06T23:46:31.161Z,4.82
2022-11-06T23:48:58.002Z,4.63
2022-11-06T23:51:25.562Z,4.63
2022-11-06T23:53:52.960Z,4.40
2022-11-06T23:56:19.594Z,3.97
2022-11-06T23:58:46.077Z,3.85
